Time;durP1;ratioP1;P1;durP2;ratioP2;P2;SDS_P1;SDS_P2;PMS_P1;PMS_P2;Temp;Humidity;BMP_temperature;BMP_pressure;BME280_temperature;BME280_humidity;BME280_pressure;Samples;Min_cycle;Max_cycle;Signal;HPM_P1;HPM_P2
2022/10/27 00:01:15;;;;;;;;;;;;;;;;;;6196288;23;19958;-88
2022/10/27 00:03:41;;;;;;;;;;;;;;;;;;6200616;23;19919;-89
2022/10/27 00:06:07;;;;;;;;;;;;;;;;;;6195711;23;19923;-89
2022/10/27 00:08:33;;;;;;;;;;;;;;;;;;6224991;23;19925;-89
2022/10/27 00:10:59;;;;;;;;;;;;;;;;;;6223342;23;19920;-89
2022/10/27 00:13:25;;;;;;;;;;;;;;;;;;6221665;23;19915;-89
2022/10/27 00:15:51;;;;;;;;;;;;;;;;;;6199491;23;20177;-89
2022/10/27 00:18:17;;;;;;;;;;;;;;;;;;6222808;23;20115;-89
2022/10/27 00:20:43;;;;;;;;;;;;;;;;;;6199540;23;19923;-89
2022/10/27 00:23:09;;;;;;;;;;;;;;;;;;6198700;23;19919;-88
2022/10/27 00:25:35;;;;;;;;;;;;;;;;;;6198894;23;19927;-88
2022/10/27 00:28:04;;;;;;;;;;;;;;;;;;6198473;23;19919;-88
2022/10/27 00:30:30;;;;;;;;;;;;;;;;;;6199522;23;19919;-88
2022/10/27 00:32:56;;;;;;;;;;;;;;;;;;6201364;23;19919;-88
2022/10/27 00:35:22;;;;;;;;;;;;;;;;;;6197509;23;20403;-88
2022/10/27 00:37:48;;;;;;;;;;;;;;;;;;6225932;23;19973;-88
2022/10/27 00:40:14;;;;;;;;;;;;;;;;;;6192878;23;20348;-88
2022/10/27 00:42:40;;;;;;;;;;;;;;;;;;6199113;23;20218;-89
2022/10/27 00:45:06;;;;;;;;;;;;;;;;;;6222588;23;20005;-90
2022/10/27 00:47:33;;;;;;;;;;;;;;;;;;6229220;22;20423;-89
2022/10/27 00:49:59;;;;;;;;;;;;;;;;;;6176188;23;19951;-89
2022/10/27 00:52:25;;;;;;;;;;;;;;;;;;6199328;23;19954;-89
2022/10/27 00:54:51;;;;;;;;;;;;;;;;;;6175386;23;19919;-89
2022/10/27 00:57:17;;;;;;;;;;;;;;;;;;6171003;23;19977;-88
2022/10/27 00:59:43;;;;;;;;;;;;;;;;;;6175856;23;19920;-89
2022/10/27 01:02:09;;;;;;;;;;;;;;;;;;6169793;23;20252;-89
2022/10/27 01:04:36;;;;;;;;;;;;;;;;;;6227795;23;19926;-89
2022/10/27 01:07:05;;;;;;;;;;;;;;;;;;6175634;23;20378;-89
2022/10/27 01:09:33;;;;;;;;;;;;;;;;;;6226058;23;19950;-89
2022/10/27 01:11:59;;;;;;;;;;;;;;;;;;6175287;23;19926;-89
2022/10/27 01:14:25;;;;;;;;;;;;;;;;;;6198010;23;20014;-88
2022/10/27 01:16:53;;;;;;;;;;;;;;;;;;6198045;23;19919;-89
2022/10/27 01:19:19;;;;;;;;;;;;;;;;;;6197391;23;20034;-89
2022/10/27 01:21:45;;;;;;;;;;;;;;;;;;6175881;23;20415;-89
2022/10/27 01:24:11;;;;;;;;;;;;;;;;;;6171363;23;19965;-88
2022/10/27 01:26:37;;;;;;;;;;;;;;;;;;6174123;23;19930;-89
2022/10/27 01:29:03;;;;;;;;;;;;;;;;;;6196984;23;19919;-89
2022/10/27 01:31:29;;;;;;;;;;;;;;;;;;6196582;23;19920;-89
2022/10/27 01:33:55;;;;;;;;;;;;;;;;;;6199757;23;19920;-89
2022/10/27 01:36:21;;;;;;;;;;;;;;;;;;6170751;23;19920;-89
2022/10/27 01:38:47;;;;;;;;;;;;;;;;;;6198139;23;19919;-89
2022/10/27 01:41:13;;;;;;;;;;;;;;;;;;6171741;23;20361;-88
2022/10/27 01:43:39;;;;;;;;;;;;;;;;;;6171839;23;20311;-88
2022/10/27 01:46:05;;;;;;;;;;;;;;;;;;6171997;23;19959;-88
2022/10/27 01:48:31;;;;;;;;;;;;;;;;;;6179920;23;19962;-88
2022/10/27 01:50:57;;;;;;;;;;;;;;;;;;6196690;23;20016;-88
2022/10/27 01:53:23;;;;;;;;;;;;;;;;;;6196039;23;20161;-89
2022/10/27 01:55:51;;;;;;;;;;;;;;;;;;6200132;23;20390;-88
2022/10/27 01:58:18;;;;;;;;;;;;;;;;;;6222663;23;19919;-88
2022/10/27 02:00:44;;;;;;;;;;;;;;;;;;6198895;23;19920;-88
2022/10/27 02:03:10;;;;;;;;;;;;;;;;;;6220021;23;19919;-89
2022/10/27 02:05:36;;;;;;;;;;;;;;;;;;6197782;23;19923;-88
2022/10/27 02:08:02;;;;;;;;;;;;;;;;;;6197465;23;19915;-88
2022/10/27 02:10:28;;;;;;;;;;;;;;;;;;6198689;23;19931;-88
2022/10/27 02:12:54;;;;;;;;;;;;;;;;;;6198174;23;20325;-88
2022/10/27 02:15:20;;;;;;;;;;;;;;;;;;6194112;23;20230;-88
2022/10/27 02:17:46;;;;;;;;;;;;;;;;;;6199050;23;20034;-89
2022/10/27 02:20:12;;;;;;;;;;;;;;;;;;6222066;23;20253;-87
2022/10/27 02:22:38;;;;;;;;;;;;;;;;;;6224574;23;19942;-88
2022/10/27 02:25:04;;;;;;;;;;;;;;;;;;6198661;23;20230;-88
2022/10/27 02:27:30;;;;;;;;;;;;;;;;;;6198609;23;20427;-88
2022/10/27 02:29:56;;;;;;;;;;;;;;;;;;6198679;23;19931;-88
2022/10/27 02:32:22;;;;;;;;;;;;;;;;;;6221841;23;20554;-89
2022/10/27 02:34:48;;;;;;;;;;;;;;;;;;6198564;23;19920;-88
2022/10/27 02:37:13;;;;;;;;;;;;;;;;;;6197376;23;19916;-88
2022/10/27 02:39:39;;;;;;;;;;;;;;;;;;6222689;23;19927;-89
2022/10/27 02:42:05;;;;;;;;;;;;;;;;;;6196166;23;19920;-88
2022/10/27 02:44:31;;;;;;;;;;;;;;;;;;6197922;23;19951;-88
2022/10/27 02:46:57;;;;;;;;;;;;;;;;;;6222958;23;19951;-88
2022/10/27 02:49:23;;;;;;;;;;;;;;;;;;6222314;23;19994;-89
2022/10/27 02:51:49;;;;;;;;;;;;;;;;;;6222758;23;19919;-88
2022/10/27 02:54:15;;;;;;;;;;;;;;;;;;6198923;23;19920;-89
2022/10/27 02:56:41;;;;;;;;;;;;;;;;;;6225984;23;20359;-88
2022/10/27 02:59:07;;;;;;;;;;;;;;;;;;6197562;23;19924;-88
2022/10/27 03:01:33;;;;;;;;;;;;;;;;;;6200700;23;19923;-88
2022/10/27 03:03:59;;;;;;;;;;;;;;;;;;6199241;23;19919;-89
2022/10/27 03:06:25;;;;;;;;;;;;;;;;;;6225076;23;19998;-89
2022/10/27 03:08:51;;;;;;;;;;;;;;;;;;6227194;23;20015;-88
2022/10/27 03:11:17;;;;;;;;;;;;;;;;;;6201289;23;19974;-88
2022/10/27 03:13:43;;;;;;;;;;;;;;;;;;6231480;23;19923;-88
2022/10/27 03:16:09;;;;;;;;;;;;;;;;;;6205227;23;20282;-88
2022/10/27 03:18:35;;;;;;;;;;;;;;;;;;6207998;23;19951;-87
2022/10/27 03:21:07;;;;;;;;;;;;;;;;;;6232007;23;20287;-87
2022/10/27 03:23:33;;;;;;;;;;;;;;;;;;6206294;23;20311;-87
2022/10/27 03:25:59;;;;;;;;;;;;;;;;;;6205289;23;19930;-87
2022/10/27 03:28:25;;;;;;;;;;;;;;;;;;6224659;23;19916;-88
2022/10/27 03:30:51;;;;;;;;;;;;;;;;;;6228179;23;19958;-88
2022/10/27 03:33:17;;;;;;;;;;;;;;;;;;6223147;23;19994;-87
2022/10/27 03:35:43;;;;;;;;;;;;;;;;;;6201266;23;20489;-87
2022/10/27 03:38:11;;;;;;;;;;;;;;;;;;6224060;23;19920;-88
2022/10/27 03:40:37;;;;;;;;;;;;;;;;;;6201438;23;19926;-87
2022/10/27 03:43:03;;;;;;;;;;;;;;;;;;6221586;23;20249;-87
2022/10/27 03:45:29;;;;;;;;;;;;;;;;;;6203226;23;20584;-88
2022/10/27 03:47:55;;;;;;;;;;;;;;;;;;6242784;22;19938;-88
2022/10/27 03:50:21;;;;;;;;;;;;;;;;;;6195759;23;19934;-87
2022/10/27 03:52:47;;;;;;;;;;;;;;;;;;6199320;23;20276;-87
2022/10/27 03:55:13;;;;;;;;;;;;;;;;;;6197643;23;19958;-87
2022/10/27 03:57:39;;;;;;;;;;;;;;;;;;6201762;23;20420;-87
2022/10/27 04:00:05;;;;;;;;;;;;;;;;;;6198091;23;20321;-87
2022/10/27 04:02:31;;;;;;;;;;;;;;;;;;6201328;23;19919;-87
2022/10/27 04:04:57;;;;;;;;;;;;;;;;;;6198071;23;19924;-87
2022/10/27 04:07:23;;;;;;;;;;;;;;;;;;6196842;23;19923;-87
2022/10/27 04:09:49;;;;;;;;;;;;;;;;;;6228155;23;20006;-87
2022/10/27 04:12:15;;;;;;;;;;;;;;;;;;6223648;23;20489;-87
2022/10/27 04:14:41;;;;;;;;;;;;;;;;;;6198767;23;20438;-87
2022/10/27 04:17:07;;;;;;;;;;;;;;;;;;6201163;23;20275;-87
2022/10/27 04:19:33;;;;;;;;;;;;;;;;;;6200734;23;19996;-86
2022/10/27 04:21:59;;;;;;;;;;;;;;;;;;6200376;23;19950;-87
2022/10/27 04:24:25;;;;;;;;;;;;;;;;;;6223611;23;19919;-87
2022/10/27 04:26:51;;;;;;;;;;;;;;;;;;6226279;23;19934;-87
2022/10/27 04:29:17;;;;;;;;;;;;;;;;;;6196224;23;19935;-87
2022/10/27 04:31:43;;;;;;;;;;;;;;;;;;6202963;23;19927;-87
2022/10/27 04:34:09;;;;;;;;;;;;;;;;;;6195863;23;20341;-87
2022/10/27 04:36:35;;;;;;;;;;;;;;;;;;6198890;23;19919;-88
2022/10/27 04:39:04;;;;;;;;;;;;;;;;;;6199137;23;19919;-88
2022/10/27 04:41:30;;;;;;;;;;;;;;;;;;6226163;23;19916;-88
2022/10/27 04:43:56;;;;;;;;;;;;;;;;;;6219832;23;19989;-88
2022/10/27 04:46:22;;;;;;;;;;;;;;;;;;6194325;23;20367;-87
2022/10/27 04:48:48;;;;;;;;;;;;;;;;;;6200103;23;20006;-88
2022/10/27 04:51:14;;;;;;;;;;;;;;;;;;6196429;23;20356;-87
2022/10/27 04:53:40;;;;;;;;;;;;;;;;;;6199666;22;19920;-87
2022/10/27 04:56:06;;;;;;;;;;;;;;;;;;6222712;23;19946;-87
2022/10/27 04:58:32;;;;;;;;;;;;;;;;;;6205436;23;19919;-88
2022/10/27 05:00:58;;;;;;;;;;;;;;;;;;6200781;23;19991;-87
2022/10/27 05:03:24;;;;;;;;;;;;;;;;;;6193012;23;19954;-87
2022/10/27 05:05:50;;;;;;;;;;;;;;;;;;6203434;23;19959;-86
2022/10/27 05:08:16;;;;;;;;;;;;;;;;;;6194793;23;19920;-87
2022/10/27 05:10:42;;;;;;;;;;;;;;;;;;6197687;23;20311;-87
2022/10/27 05:13:08;;;;;;;;;;;;;;;;;;6222744;23;19926;-87
2022/10/27 05:15:34;;;;;;;;;;;;;;;;;;6203663;23;19915;-89
2022/10/27 05:18:00;;;;;;;;;;;;;;;;;;6207601;23;19919;-89
2022/10/27 05:20:26;;;;;;;;;;;;;;;;;;6201542;23;19927;-87
2022/10/27 05:22:54;;;;;;;;;;;;;;;;;;6227952;23;19919;-88
2022/10/27 05:25:20;;;;;;;;;;;;;;;;;;6202119;23;19919;-88
2022/10/27 05:27:46;;;;;;;;;;;;;;;;;;6202562;23;20240;-88
2022/10/27 05:30:13;;;;;;;;;;;;;;;;;;6222051;23;19923;-88
2022/10/27 05:32:39;;;;;;;;;;;;;;;;;;6226089;23;19919;-87
2022/10/27 05:35:05;;;;;;;;;;;;;;;;;;6198701;23;20237;-87
2022/10/27 05:37:31;;;;;;;;;;;;;;;;;;6201863;23;19965;-88
2022/10/27 05:39:57;;;;;;;;;;;;;;;;;;6227811;23;19973;-87
2022/10/27 05:42:23;;;;;;;;;;;;;;;;;;6200747;23;20316;-88
2022/10/27 05:44:49;;;;;;;;;;;;;;;;;;6203705;23;19988;-88
2022/10/27 05:47:15;;;;;;;;;;;;;;;;;;6225973;23;20014;-88
2022/10/27 05:49:44;;;;;;;;;;;;;;;;;;6200817;23;19920;-88
2022/10/27 05:52:10;;;;;;;;;;;;;;;;;;6197535;23;19919;-88
2022/10/27 05:54:36;;;;;;;;;;;;;;;;;;6226417;22;19954;-88
2022/10/27 05:57:05;;;;;;;;;;;;;;;;;;6199782;23;20340;-88
2022/10/27 05:59:31;;;;;;;;;;;;;;;;;;6224101;23;20336;-89
2022/10/27 06:01:57;;;;;;;;;;;;;;;;;;6224366;23;19926;-88
2022/10/27 06:04:23;;;;;;;;;;;;;;;;;;6196023;23;19930;-88
2022/10/27 06:06:49;;;;;;;;;;;;;;;;;;6203897;23;20329;-88
2022/10/27 06:09:15;;;;;;;;;;;;;;;;;;6227855;23;19922;-88
2022/10/27 06:11:41;;;;;;;;;;;;;;;;;;6236080;23;19916;-88
2022/10/27 06:14:07;;;;;;;;;;;;;;;;;;6229347;23;19919;-88
2022/10/27 06:16:33;;;;;;;;;;;;;;;;;;6206447;23;20367;-86
2022/10/27 06:18:59;;;;;;;;;;;;;;;;;;6230883;23;19919;-87
2022/10/27 06:21:25;;;;;;;;;;;;;;;;;;6225851;23;20631;-87
2022/10/27 06:23:51;;;;;;;;;;;;;;;;;;6232261;23;19919;-87
2022/10/27 06:26:19;;;;;;;;;;;;;;;;;;6203968;23;19919;-87
2022/10/27 06:28:45;;;;;;;;;;;;;;;;;;6208029;23;19926;-87
2022/10/27 06:34:29;;;;;;;;;;;;;;;;;;;;;
2022/10/27 06:37:19;;;;;;;;;;;;;;;;;;6231513;23;19927;-87
2022/10/27 06:43:21;;;;;;;;;;;;;;;;;;6085149;23;20049;-87
2022/10/27 06:46:05;;;;;;;;;;;;;;;;;;6055702;23;19925;-89
2022/10/27 06:48:34;;;;;;;;;;;;;;;;;;6158876;23;19923;-87
2022/10/27 06:51:04;;;;;;;;;;;;;;;;;;6174264;23;19919;-87
2022/10/27 06:53:30;;;;;;;;;;;;;;;;;;6150378;23;19920;-87
2022/10/27 06:55:56;;;;;;;;;;;;;;;;;;6149772;23;20395;-87
2022/10/27 06:58:22;;;;;;;;;;;;;;;;;;6149748;23;20310;-87
2022/10/27 07:00:48;;;;;;;;;;;;;;;;;;6151078;23;20024;-88
2022/10/27 07:03:14;;;;;;;;;;;;;;;;;;6149955;23;19920;-87
2022/10/27 07:05:40;;;;;;;;;;;;;;;;;;6151332;23;19930;-87
2022/10/27 07:08:06;;;;;;;;;;;;;;;;;;6172866;23;19919;-87
2022/10/27 07:10:32;;;;;;;;;;;;;;;;;;6187990;23;20393;-87
2022/10/27 07:12:58;;;;;;;;;;;;;;;;;;6232630;23;19919;-87
2022/10/27 07:15:24;;;;;;;;;;;;;;;;;;6229104;23;19931;-87
2022/10/27 07:17:50;;;;;;;;;;;;;;;;;;6208109;23;19919;-88
2022/10/27 07:20:16;;;;;;;;;;;;;;;;;;6231317;23;20037;-88
2022/10/27 07:22:42;;;;;;;;;;;;;;;;;;6233292;23;19919;-87
2022/10/27 07:25:08;;;;;;;;;;;;;;;;;;6228986;23;19927;-87
2022/10/27 07:27:34;;;;;;;;;;;;;;;;;;6208947;23;19998;-87
2022/10/27 07:30:00;;;;;;;;;;;;;;;;;;6208922;23;19926;-87
2022/10/27 07:32:26;;;;;;;;;;;;;;;;;;6205230;23;19970;-88
2022/10/27 07:34:52;;;;;;;;;;;;;;;;;;6206544;23;19966;-88
2022/10/27 07:37:17;;;;;;;;;;;;;;;;;;6227735;23;19926;-87
2022/10/27 07:39:43;;;;;;;;;;;;;;;;;;6205702;23;19986;-88
2022/10/27 07:42:09;;;;;;;;;;;;;;;;;;6201217;23;19942;-87
2022/10/27 07:44:35;;;;;;;;;;;;;;;;;;6231298;23;19930;-88
2022/10/27 07:47:04;;;;;;;;;;;;;;;;;;6206295;23;19947;-87
2022/10/27 07:49:30;;;;;;;;;;;;;;;;;;6207903;23;19920;-88
2022/10/27 07:51:56;;;;;;;;;;;;;;;;;;6207825;23;20041;-87
2022/10/27 07:54:22;;;;;;;;;;;;;;;;;;6206339;23;20498;-88
2022/10/27 07:56:48;;;;;;;;;;;;;;;;;;6205518;23;19915;-88
2022/10/27 07:59:14;;;;;;;;;;;;;;;;;;6206925;23;19920;-88
2022/10/27 08:01:40;;;;;;;;;;;;;;;;;;6233019;23;20240;-87
2022/10/27 08:04:06;;;;;;;;;;;;;;;;;;6231624;23;19985;-88
2022/10/27 08:06:32;;;;;;;;;;;;;;;;;;6234447;23;20054;-86
2022/10/27 08:08:58;;;;;;;;;;;;;;;;;;6209537;23;19978;-87
2022/10/27 08:11:24;;;;;;;;;;;;;;;;;;6207337;23;19919;-86
2022/10/27 08:13:53;;;;;;;;;;;;;;;;;;6234594;23;19916;-87
2022/10/27 08:16:19;;;;;;;;;;;;;;;;;;6231671;23;20048;-86
2022/10/27 08:18:45;;;;;;;;;;;;;;;;;;6236972;23;19927;-89
2022/10/27 08:21:11;;;;;;;;;;;;;;;;;;6207870;23;19915;-87
2022/10/27 08:23:38;;;;;;;;;;;;;;;;;;6235766;23;20003;-87
2022/10/27 08:26:04;;;;;;;;;;;;;;;;;;6207058;23;20310;-87
2022/10/27 08:28:30;;;;;;;;;;;;;;;;;;6235989;23;19942;-87
2022/10/27 08:30:58;;;;;;;;;;;;;;;;;;6233813;23;19919;-87
2022/10/27 08:33:24;;;;;;;;;;;;;;;;;;6231211;23;19919;-87
2022/10/27 08:35:50;;;;;;;;;;;;;;;;;;6232980;23;20015;-88
2022/10/27 08:38:16;;;;;;;;;;;;;;;;;;6233756;23;19923;-87
2022/10/27 08:40:42;;;;;;;;;;;;;;;;;;6233048;23;19935;-87
2022/10/27 08:43:08;;;;;;;;;;;;;;;;;;6229712;23;19926;-88
2022/10/27 08:45:34;;;;;;;;;;;;;;;;;;6209187;23;19919;-87
2022/10/27 08:48:00;;;;;;;;;;;;;;;;;;6207898;23;19920;-87
2022/10/27 08:50:26;;;;;;;;;;;;;;;;;;6206358;23;20243;-87
2022/10/27 08:52:52;;;;;;;;;;;;;;;;;;6208226;23;20087;-87
2022/10/27 08:55:18;;;;;;;;;;;;;;;;;;6206476;23;19923;-88
2022/10/27 08:57:44;;;;;;;;;;;;;;;;;;6234758;23;19919;-87
2022/10/27 09:00:10;;;;;;;;;;;;;;;;;;6230310;23;19974;-87
2022/10/27 09:02:36;;;;;;;;;;;;;;;;;;6208764;23;19920;-88
2022/10/27 09:05:05;;;;;;;;;;;;;;;;;;6207564;23;19919;-87
2022/10/27 09:07:31;;;;;;;;;;;;;;;;;;6208697;23;19982;-87
2022/10/27 09:09:57;;;;;;;;;;;;;;;;;;6234908;23;19973;-87
2022/10/27 09:12:23;;;;;;;;;;;;;;;;;;6233987;23;20030;-87
2022/10/27 09:14:49;;;;;;;;;;;;;;;;;;6232550;23;19920;-88
2022/10/27 09:17:15;;;;;;;;;;;;;;;;;;6230718;23;20390;-87
2022/10/27 09:19:41;;;;;;;;;;;;;;;;;;6232582;23;19915;-88
2022/10/27 09:22:07;;;;;;;;;;;;;;;;;;6204142;23;19922;-88
2022/10/27 09:24:33;;;;;;;;;;;;;;;;;;6207419;23;20014;-88
2022/10/27 09:26:59;;;;;;;;;;;;;;;;;;6233602;23;19923;-87
2022/10/27 09:29:25;;;;;;;;;;;;;;;;;;6206545;23;19915;-88
2022/10/27 09:31:52;;;;;;;;;;;;;;;;;;6207669;23;19996;-88
2022/10/27 09:34:18;;;;;;;;;;;;;;;;;;6229676;23;19927;-88
2022/10/27 09:36:44;;;;;;;;;;;;;;;;;;6227651;23;19919;-88
2022/10/27 09:39:10;;;;;;;;;;;;;;;;;;6204453;23;19997;-87
2022/10/27 09:41:36;;;;;;;;;;;;;;;;;;6205964;23;19931;-88
2022/10/27 09:44:05;;;;;;;;;;;;;;;;;;6233538;23;19981;-88
2022/10/27 09:46:31;;;;;;;;;;;;;;;;;;6231424;23;19919;-88
2022/10/27 09:48:57;;;;;;;;;;;;;;;;;;6203434;23;19998;-88
2022/10/27 09:51:23;;;;;;;;;;;;;;;;;;6228509;23;20329;-88
2022/10/27 09:53:52;;;;;;;;;;;;;;;;;;6207660;22;20185;-88
2022/10/27 09:56:18;;;;;;;;;;;;;;;;;;6231052;23;19919;-88
2022/10/27 09:58:44;;;;;;;;;;;;;;;;;;6208658;23;19919;-88
2022/10/27 10:01:10;;;;;;;;;;;;;;;;;;6236492;23;20277;-88
2022/10/27 10:03:36;;;;;;;;;;;;;;;;;;6232336;23;20324;-88
2022/10/27 10:06:02;;;;;;;;;;;;;;;;;;6204552;23;19935;-88
2022/10/27 10:08:28;;;;;;;;;;;;;;;;;;6206437;23;19943;-88
2022/10/27 10:10:54;;;;;;;;;;;;;;;;;;6206881;23;20312;-88
2022/10/27 10:13:21;;;;;;;;;;;;;;;;;;6230139;23;20454;-88
2022/10/27 10:15:47;;;;;;;;;;;;;;;;;;6234248;23;20010;-88
2022/10/27 10:18:13;;;;;;;;;;;;;;;;;;6232095;23;19943;-88
2022/10/27 10:20:41;;;;;;;;;;;;;;;;;;6206335;23;19948;-88
2022/10/27 10:23:07;;;;;;;;;;;;;;;;;;6230471;23;19915;-88
2022/10/27 10:25:33;;;;;;;;;;;;;;;;;;6207604;23;19974;-88
2022/10/27 10:27:59;;;;;;;;;;;;;;;;;;6233342;23;19951;-88
2022/10/27 10:30:25;;;;;;;;;;;;;;;;;;6206654;23;19927;-89
2022/10/27 10:32:51;;;;;;;;;;;;;;;;;;6207494;23;19978;-88
2022/10/27 10:35:17;;;;;;;;;;;;;;;;;;6230495;23;19969;-88
2022/10/27 10:37:45;;;;;;;;;;;;;;;;;;6231513;23;19924;-88
2022/10/27 10:40:11;;;;;;;;;;;;;;;;;;6229043;23;20348;-89
2022/10/27 10:42:37;;;;;;;;;;;;;;;;;;6208813;23;19924;-89
2022/10/27 10:45:03;;;;;;;;;;;;;;;;;;6231297;23;19973;-88
2022/10/27 10:47:29;;;;;;;;;;;;;;;;;;6209029;23;19919;-88
2022/10/27 10:49:55;;;;;;;;;;;;;;;;;;6231494;23;19923;-88
2022/10/27 10:52:21;;;;;;;;;;;;;;;;;;6228782;22;20022;-88
2022/10/27 10:54:47;;;;;;;;;;;;;;;;;;6233543;22;19955;-88
2022/10/27 10:57:13;;;;;;;;;;;;;;;;;;6203159;23;19926;-89
2022/10/27 10:59:39;;;;;;;;;;;;;;;;;;6206661;23;19930;-88
2022/10/27 11:02:05;;;;;;;;;;;;;;;;;;6204706;23;19939;-87
2022/10/27 11:04:31;;;;;;;;;;;;;;;;;;6207443;23;19924;-88
2022/10/27 11:06:57;;;;;;;;;;;;;;;;;;6207604;23;20287;-88
2022/10/27 11:09:23;;;;;;;;;;;;;;;;;;6205102;23;19985;-89
2022/10/27 11:11:49;;;;;;;;;;;;;;;;;;6206430;23;19924;-88
2022/10/27 11:14:15;;;;;;;;;;;;;;;;;;6204466;23;19966;-88
2022/10/27 11:16:41;;;;;;;;;;;;;;;;;;6207201;23;19920;-88
2022/10/27 11:19:07;;;;;;;;;;;;;;;;;;6204559;23;19915;-88
2022/10/27 11:21:33;;;;;;;;;;;;;;;;;;6209012;23;19924;-89
2022/10/27 11:23:59;;;;;;;;;;;;;;;;;;6208886;23;19919;-89
2022/10/27 11:26:25;;;;;;;;;;;;;;;;;;6203481;23;20007;-88
2022/10/27 11:28:51;;;;;;;;;;;;;;;;;;6208102;23;19920;-88
2022/10/27 11:31:17;;;;;;;;;;;;;;;;;;6230299;23;19926;-89
2022/10/27 11:33:43;;;;;;;;;;;;;;;;;;6236080;23;19939;-89
2022/10/27 11:36:09;;;;;;;;;;;;;;;;;;6207215;23;19920;-88
2022/10/27 11:38:35;;;;;;;;;;;;;;;;;;6209852;23;19994;-89
2022/10/27 11:41:04;;;;;;;;;;;;;;;;;;6233177;23;19929;-89
2022/10/27 11:43:30;;;;;;;;;;;;;;;;;;6207142;23;20308;-89
2022/10/27 11:45:56;;;;;;;;;;;;;;;;;;6210277;23;19920;-89
2022/10/27 11:48:22;;;;;;;;;;;;;;;;;;6206198;22;20234;-89
2022/10/27 11:50:48;;;;;;;;;;;;;;;;;;6234840;23;19934;-89
2022/10/27 11:53:14;;;;;;;;;;;;;;;;;;6208229;23;19973;-89
2022/10/27 11:55:40;;;;;;;;;;;;;;;;;;6206656;23;19920;-89
2022/10/27 11:58:06;;;;;;;;;;;;;;;;;;6228781;23;19919;-89
2022/10/27 12:00:32;;;;;;;;;;;;;;;;;;6210294;23;20344;-89
2022/10/27 12:03:01;;;;;;;;;;;;;;;;;;6232430;23;19919;-89
2022/10/27 12:05:29;;;;;;;;;;;;;;;;;;6232068;23;19973;-88
2022/10/27 12:07:55;;;;;;;;;;;;;;;;;;6232005;23;19941;-89
2022/10/27 12:10:21;;;;;;;;;;;;;;;;;;6206149;23;19915;-89
2022/10/27 12:12:48;;;;;;;;;;;;;;;;;;6233448;23;19919;-89
2022/10/27 12:15:14;;;;;;;;;;;;;;;;;;6205773;23;19923;-89
2022/10/27 12:17:40;;;;;;;;;;;;;;;;;;6231561;23;19926;-89
2022/10/27 12:20:06;;;;;;;;;;;;;;;;;;6204689;23;19919;-89
2022/10/27 12:22:34;;;;;;;;;;;;;;;;;;6206984;23;19919;-89
2022/10/27 12:25:00;;;;;;;;;;;;;;;;;;6208024;23;20328;-89
2022/10/27 12:27:28;;;;;;;;;;;;;;;;;;6205103;23;20095;-89
2022/10/27 12:29:54;;;;;;;;;;;;;;;;;;6207386;23;19926;-89
2022/10/27 12:32:22;;;;;;;;;;;;;;;;;;6205239;23;20331;-88
2022/10/27 12:34:48;;;;;;;;;;;;;;;;;;6231724;23;19942;-89
2022/10/27 12:37:14;;;;;;;;;;;;;;;;;;6204998;23;19916;-89
2022/10/27 12:39:40;;;;;;;;;;;;;;;;;;6207890;23;19929;-89
2022/10/27 12:42:06;;;;;;;;;;;;;;;;;;6232797;23;19920;-89
2022/10/27 12:44:32;;;;;;;;;;;;;;;;;;6207864;23;19916;-89
2022/10/27 12:46:58;;;;;;;;;;;;;;;;;;6231289;23;19973;-89
2022/10/27 12:49:24;;;;;;;;;;;;;;;;;;6204052;23;19923;-89
2022/10/27 12:51:53;;;;;;;;;;;;;;;;;;6233085;22;19920;-90
2022/10/27 12:54:19;;;;;;;;;;;;;;;;;;6205011;23;19919;-90
2022/10/27 12:56:45;;;;;;;;;;;;;;;;;;6233711;23;20305;-91
2022/10/27 12:59:11;;;;;;;;;;;;;;;;;;6204167;23;19959;-89
2022/10/27 13:01:39;;;;;;;;;;;;;;;;;;6207742;23;20000;-89
2022/10/27 13:04:05;;;;;;;;;;;;;;;;;;6232337;23;19927;-89
2022/10/27 13:06:31;;;;;;;;;;;;;;;;;;6209731;23;19923;-89
2022/10/27 13:08:57;;;;;;;;;;;;;;;;;;6207846;23;19930;-89
2022/10/27 13:11:23;;;;;;;;;;;;;;;;;;6208445;23;19924;-89
2022/10/27 13:13:49;;;;;;;;;;;;;;;;;;6207313;23;19922;-90
2022/10/27 13:16:15;;;;;;;;;;;;;;;;;;6231641;23;19927;-89
2022/10/27 13:18:41;;;;;;;;;;;;;;;;;;6207611;23;19923;-89
2022/10/27 13:21:07;;;;;;;;;;;;;;;;;;6204553;23;19927;-89
2022/10/27 13:23:33;;;;;;;;;;;;;;;;;;6210123;23;19924;-89
2022/10/27 13:25:59;;;;;;;;;;;;;;;;;;6210366;23;19924;-89
2022/10/27 13:28:25;;;;;;;;;;;;;;;;;;6206660;23;20698;-90
2022/10/27 13:30:51;;;;;;;;;;;;;;;;;;6207162;23;19985;-90
2022/10/27 13:33:17;;;;;;;;;;;;;;;;;;6207912;23;20317;-90
2022/10/27 13:35:43;;;;;;;;;;;;;;;;;;6235401;23;19974;-89
2022/10/27 13:38:09;;;;;;;;;;;;;;;;;;6206832;23;19987;-90
2022/10/27 13:40:35;;;;;;;;;;;;;;;;;;6208570;23;19950;-90
2022/10/27 13:43:01;;;;;;;;;;;;;;;;;;6206820;23;19942;-90
2022/10/27 13:45:27;;;;;;;;;;;;;;;;;;6205904;23;20333;-89
2022/10/27 13:47:53;;;;;;;;;;;;;;;;;;6234026;23;19927;-90
2022/10/27 13:50:22;;;;;;;;;;;;;;;;;;6210724;23;19924;-90
2022/10/27 13:52:50;;;;;;;;;;;;;;;;;;6206256;23;19927;-91
2022/10/27 14:24:15;;;;;;;;;;;;;;;;;;6300287;22;19922;-86
2022/10/27 14:26:56;;;;;;;;;;;;;;;;;;6225976;23;20367;-88
2022/10/27 14:29:36;;;;;;;;;;;;;;;;;;6196369;23;19916;-88
2022/10/27 14:32:05;;;;;;;;;;;;;;;;;;6176197;23;19923;-88
2022/10/27 14:34:31;;;;;;;;;;;;;;;;;;6176345;23;20379;-88
2022/10/27 14:36:57;;;;;;;;;;;;;;;;;;6176070;23;20002;-88
2022/10/27 14:39:23;;;;;;;;;;;;;;;;;;6176198;23;20781;-88
2022/10/27 14:41:50;;;;;;;;;;;;;;;;;;6197236;23;20255;-88
2022/10/27 14:44:17;;;;;;;;;;;;;;;;;;6172404;23;20212;-88
2022/10/27 14:46:45;;;;;;;;;;;;;;;;;;6170929;23;20071;-88
2022/10/27 14:49:11;;;;;;;;;;;;;;;;;;6168048;23;19919;-88
2022/10/27 14:51:37;;;;;;;;;;;;;;;;;;6174422;23;19927;-89
2022/10/27 14:54:03;;;;;;;;;;;;;;;;;;6159862;23;19983;-88
2022/10/27 14:56:29;;;;;;;;;;;;;;;;;;6169967;23;19953;-89
2022/10/27 14:58:55;;;;;;;;;;;;;;;;;;6251855;22;19931;-89
2022/10/27 15:01:21;;;;;;;;;;;;;;;;;;6257478;22;19960;-88
2022/10/27 15:03:47;;;;;;;;;;;;;;;;;;6291821;22;19957;-88
2022/10/27 15:06:13;;;;;;;;;;;;;;;;;;6261484;22;19945;-89
2022/10/27 15:08:39;;;;;;;;;;;;;;;;;;6259735;22;20398;-89
2022/10/27 15:11:06;;;;;;;;;;;;;;;;;;6285697;22;19919;-89
2022/10/27 15:13:32;;;;;;;;;;;;;;;;;;6262884;22;19997;-89
2022/10/27 15:15:58;;;;;;;;;;;;;;;;;;6258092;22;20111;-89
2022/10/27 15:18:24;;;;;;;;;;;;;;;;;;6259253;22;19926;-89
2022/10/27 15:20:50;;;;;;;;;;;;;;;;;;6265117;22;19919;-88
2022/10/27 15:23:16;;;;;;;;;;;;;;;;;;6257886;22;19918;-88
2022/10/27 15:25:42;;;;;;;;;;;;;;;;;;6278743;22;19934;-88
2022/10/27 15:28:08;;;;;;;;;;;;;;;;;;6253651;22;19955;-88
2022/10/27 15:30:34;;;;;;;;;;;;;;;;;;6257260;22;19957;-89
2022/10/27 15:33:00;;;;;;;;;;;;;;;;;;6253833;22;19994;-89
2022/10/27 15:35:26;;;;;;;;;;;;;;;;;;6279353;22;19942;-89
2022/10/27 15:37:52;;;;;;;;;;;;;;;;;;6259368;22;19915;-89
2022/10/27 15:40:18;;;;;;;;;;;;;;;;;;6281192;22;20442;-89
2022/10/27 15:42:44;;;;;;;;;;;;;;;;;;6282243;22;19919;-89
2022/10/27 15:45:10;;;;;;;;;;;;;;;;;;6280209;22;19961;-89
2022/10/27 15:47:36;;;;;;;;;;;;;;;;;;6264608;22;20286;-89
2022/10/27 15:50:05;;;;;;;;;;;;;;;;;;6284226;22;19919;-88
2022/10/27 15:52:31;;;;;;;;;;;;;;;;;;6257359;22;19919;-89
2022/10/27 15:54:58;;;;;;;;;;;;;;;;;;6281241;22;20266;-89
2022/10/27 15:57:24;;;;;;;;;;;;;;;;;;6282857;22;19930;-89
2022/10/27 15:59:50;;;;;;;;;;;;;;;;;;6256800;22;19919;-89
2022/10/27 16:02:16;;;;;;;;;;;;;;;;;;6253365;22;20368;-89
2022/10/27 16:04:42;;;;;;;;;;;;;;;;;;6254666;22;19919;-89
2022/10/27 16:07:08;;;;;;;;;;;;;;;;;;6282249;22;19929;-89
2022/10/27 16:09:34;;;;;;;;;;;;;;;;;;6258804;22;20382;-89
2022/10/27 16:12:00;;;;;;;;;;;;;;;;;;6283049;22;19950;-89
2022/10/27 16:14:26;;;;;;;;;;;;;;;;;;6258124;22;19926;-89
2022/10/27 16:16:52;;;;;;;;;;;;;;;;;;6257921;22;19989;-89
2022/10/27 16:19:18;;;;;;;;;;;;;;;;;;6282807;22;19981;-88
2022/10/27 16:21:44;;;;;;;;;;;;;;;;;;6284867;22;19919;-89
2022/10/27 16:24:11;;;;;;;;;;;;;;;;;;6257958;22;19931;-89
2022/10/27 16:26:37;;;;;;;;;;;;;;;;;;6284082;22;20411;-87
2022/10/27 16:29:03;;;;;;;;;;;;;;;;;;6256541;22;19968;-90
2022/10/27 16:31:29;;;;;;;;;;;;;;;;;;6256867;22;19919;-88
2022/10/27 16:33:55;;;;;;;;;;;;;;;;;;6258815;22;19915;-88
2022/10/27 16:36:21;;;;;;;;;;;;;;;;;;6276781;22;19919;-88
2022/10/27 16:38:47;;;;;;;;;;;;;;;;;;6260047;22;20240;-88
2022/10/27 16:41:13;;;;;;;;;;;;;;;;;;6281123;22;19923;-88
2022/10/27 16:43:39;;;;;;;;;;;;;;;;;;6284513;22;19915;-88
2022/10/27 16:46:05;;;;;;;;;;;;;;;;;;6278953;22;19923;-88
2022/10/27 16:48:31;;;;;;;;;;;;;;;;;;6281854;22;19919;-88
2022/10/27 16:50:57;;;;;;;;;;;;;;;;;;6256633;22;20289;-88
2022/10/27 16:53:23;;;;;;;;;;;;;;;;;;6256429;22;20331;-87
2022/10/27 16:55:51;;;;;;;;;;;;;;;;;;6285236;22;20351;-88
2022/10/27 16:58:17;;;;;;;;;;;;;;;;;;6281378;22;20283;-87
2022/10/27 17:00:43;;;;;;;;;;;;;;;;;;6260589;22;19919;-87
2022/10/27 17:03:09;;;;;;;;;;;;;;;;;;6256322;22;20105;-88
2022/10/27 17:05:35;;;;;;;;;;;;;;;;;;6256987;22;19923;-87
2022/10/27 17:08:04;;;;;;;;;;;;;;;;;;6289372;22;19979;-88
2022/10/27 17:10:30;;;;;;;;;;;;;;;;;;6264225;22;19939;-87
2022/10/27 17:12:56;;;;;;;;;;;;;;;;;;6260433;22;19919;-88
2022/10/27 17:15:22;;;;;;;;;;;;;;;;;;6281938;22;20736;-87